Akhisar, Turkey
Current Conditions -  °F | °C
As of 8:50 AM on Sunday 21 Dec 2014 (Local Time) from LTBZ Reporting Station
Moderate Fog Moderate Fog  
Wind Chill: 27°   Ceiling: 200
Heat Index: 27°   Visibility: 0.28mi
Dew Point: 27°   Wind: 3mph
Humidity: 100%   Direction: 160°SSE
Pressure: 30.12"   Gusts: NA
Location:  38.93°N, 27.83°E
Report Text: LTBZ 210550Z 16003KT 140V200 0450 R31/0550N R13/0400N FZFG VV002 M03/M03 Q1020
Loading
Personal Weather Stations






























Interactive Weather Map New forecast layout! Learn more

10-Day Weather Forecast

Advertisements
Track Severe Weather on mobile